Saltar para o conteúdo principal

Torres Vedras, Dois Portos

ID 1210739 · 39.0439, -9.1790 mapa

Última leitura · 2026-05-09 19:00 (Europe/Lisbon)

Temperatura
16.0 °C
Humidade
76 %
Pressão
Precipitação
0.0 mm
Radiação
932 W/m²
Velocidade do vento
18.0 km/h
Direcção do vento
SW · Sudoeste

Histórico de 24 horas

Hora (Europe/Lisbon) Temperatura Humidade Pressão Chuva Vento Direcção
2026-05-09 19:00 16.0 °C 76 % 0.0 mm 18.0 km/h SW
2026-05-09 18:00 16.0 °C 75 % 0.0 mm 25.2 km/h S
2026-05-09 17:00 15.3 °C 84 % 0.5 mm 25.9 km/h S
2026-05-09 16:00 15.5 °C 83 % 0.7 mm 23.0 km/h SW
2026-05-09 15:00 16.4 °C 78 % 0.5 mm 31.0 km/h SW
2026-05-09 14:00 16.8 °C 72 % 0.1 mm 25.9 km/h SW
2026-05-09 13:00 17.6 °C 67 % 0.0 mm 30.2 km/h S
2026-05-09 12:00 16.5 °C 74 % 0.0 mm 22.0 km/h S
2026-05-09 11:00 15.2 °C 90 % 0.0 mm 20.2 km/h SW
2026-05-09 10:00 13.2 °C 99 % 0.2 mm 0.4 km/h S
2026-05-09 09:00 12.2 °C 99 % 0.2 mm 0.0 km/h
2026-05-09 08:00 11.3 °C 99 % 0.0 mm 0.0 km/h
2026-05-09 07:00 11.2 °C 99 % 6.4 mm 0.0 km/h
2026-05-09 06:00 12.0 °C 98 % 1.7 mm 0.0 km/h
2026-05-09 05:00 11.8 °C 97 % 0.2 mm 1.1 km/h SE
2026-05-09 04:00 11.4 °C 97 % 1.9 mm 0.0 km/h
2026-05-09 03:00 11.3 °C 94 % 1.2 mm 4.3 km/h SE
2026-05-09 02:00 13.0 °C 92 % 3.9 mm 13.0 km/h S
2026-05-09 01:00 14.3 °C 82 % 0.6 mm 26.6 km/h S
2026-05-09 00:00 14.5 °C 83 % 0.0 mm 31.7 km/h S
2026-05-08 23:00 13.9 °C 90 % 0.0 mm 18.7 km/h SE
2026-05-08 22:00 14.2 °C 89 % 0.3 mm 13.7 km/h SE
2026-05-08 21:00 14.4 °C 84 % 0.2 mm 4.3 km/h SE
2026-05-08 20:00 16.0 °C 72 % 0.2 mm 19.1 km/h S